sensor_id;sensor_type;location;lat;lon;timestamp;P1;durP1;ratioP1;P2;durP2;ratioP2
51614;SDS011;37695;52.960;6.188;2023-12-28T00:01:27;4.35;;;1.30;;
51614;SDS011;37695;52.960;6.188;2023-12-28T00:03:53;4.50;;;1.40;;
51614;SDS011;37695;52.960;6.188;2023-12-28T00:06:19;3.53;;;1.35;;
51614;SDS011;37695;52.960;6.188;2023-12-28T00:08:45;3.92;;;1.50;;
51614;SDS011;37695;52.960;6.188;2023-12-28T00:11:11;4.05;;;1.35;;
51614;SDS011;37695;52.960;6.188;2023-12-28T00:13:37;2.75;;;1.13;;
51614;SDS011;37695;52.960;6.188;2023-12-28T00:16:03;3.63;;;1.40;;
51614;SDS011;37695;52.960;6.188;2023-12-28T00:18:29;5.43;;;1.10;;
51614;SDS011;37695;52.960;6.188;2023-12-28T00:20:55;5.20;;;2.15;;
51614;SDS011;37695;52.960;6.188;2023-12-28T00:23:21;4.88;;;1.23;;
51614;SDS011;37695;52.960;6.188;2023-12-28T00:25:47;4.10;;;1.38;;
51614;SDS011;37695;52.960;6.188;2023-12-28T00:28:13;2.65;;;1.02;;
51614;SDS011;37695;52.960;6.188;2023-12-28T00:30:40;3.33;;;1.10;;
51614;SDS011;37695;52.960;6.188;2023-12-28T00:33:05;4.25;;;1.15;;
51614;SDS011;37695;52.960;6.188;2023-12-28T00:35:31;5.43;;;1.50;;
51614;SDS011;37695;52.960;6.188;2023-12-28T00:37:57;3.25;;;1.40;;
51614;SDS011;37695;52.960;6.188;2023-12-28T00:40:23;4.75;;;1.38;;
51614;SDS011;37695;52.960;6.188;2023-12-28T00:42:49;3.75;;;1.60;;
51614;SDS011;37695;52.960;6.188;2023-12-28T00:45:15;4.22;;;1.20;;
51614;SDS011;37695;52.960;6.188;2023-12-28T00:47:41;4.40;;;1.58;;
51614;SDS011;37695;52.960;6.188;2023-12-28T00:50:08;3.92;;;1.10;;
51614;SDS011;37695;52.960;6.188;2023-12-28T00:52:36;4.85;;;1.10;;
51614;SDS011;37695;52.960;6.188;2023-12-28T00:55:02;5.15;;;1.10;;
51614;SDS011;37695;52.960;6.188;2023-12-28T00:57:28;7.50;;;1.80;;
51614;SDS011;37695;52.960;6.188;2023-12-28T00:59:54;5.28;;;1.55;;
51614;SDS011;37695;52.960;6.188;2023-12-28T01:02:20;7.05;;;1.30;;
51614;SDS011;37695;52.960;6.188;2023-12-28T01:04:46;5.03;;;1.13;;
51614;SDS011;37695;52.960;6.188;2023-12-28T01:07:12;6.20;;;1.15;;
51614;SDS011;37695;52.960;6.188;2023-12-28T01:09:38;5.45;;;1.30;;
51614;SDS011;37695;52.960;6.188;2023-12-28T01:12:04;5.15;;;1.20;;
51614;SDS011;37695;52.960;6.188;2023-12-28T01:14:31;3.75;;;1.20;;
51614;SDS011;37695;52.960;6.188;2023-12-28T01:16:57;7.55;;;1.27;;
51614;SDS011;37695;52.960;6.188;2023-12-28T01:19:23;5.30;;;1.10;;
51614;SDS011;37695;52.960;6.188;2023-12-28T01:21:49;6.40;;;1.13;;
51614;SDS011;37695;52.960;6.188;2023-12-28T01:24:15;3.53;;;0.95;;
51614;SDS011;37695;52.960;6.188;2023-12-28T01:26:41;4.93;;;1.08;;
51614;SDS011;37695;52.960;6.188;2023-12-28T01:29:07;6.47;;;1.55;;
51614;SDS011;37695;52.960;6.188;2023-12-28T01:31:33;4.53;;;0.98;;
51614;SDS011;37695;52.960;6.188;2023-12-28T01:33:59;3.45;;;1.10;;
51614;SDS011;37695;52.960;6.188;2023-12-28T01:36:25;3.70;;;1.00;;
51614;SDS011;37695;52.960;6.188;2023-12-28T01:38:54;6.00;;;1.02;;
51614;SDS011;37695;52.960;6.188;2023-12-28T01:41:21;6.30;;;1.15;;
51614;SDS011;37695;52.960;6.188;2023-12-28T01:43:47;5.30;;;1.45;;
51614;SDS011;37695;52.960;6.188;2023-12-28T01:46:14;5.63;;;1.15;;
51614;SDS011;37695;52.960;6.188;2023-12-28T01:48:42;6.03;;;0.95;;
51614;SDS011;37695;52.960;6.188;2023-12-28T01:51:09;4.80;;;1.20;;
51614;SDS011;37695;52.960;6.188;2023-12-28T01:53:37;5.40;;;0.85;;
51614;SDS011;37695;52.960;6.188;2023-12-28T01:56:03;6.25;;;1.10;;
51614;SDS011;37695;52.960;6.188;2023-12-28T01:58:29;4.53;;;0.90;;
51614;SDS011;37695;52.960;6.188;2023-12-28T02:01:00;6.07;;;1.40;;
51614;SDS011;37695;52.960;6.188;2023-12-28T02:03:26;5.45;;;0.95;;
51614;SDS011;37695;52.960;6.188;2023-12-28T02:05:52;6.18;;;1.10;;
51614;SDS011;37695;52.960;6.188;2023-12-28T02:08:19;4.93;;;1.00;;
51614;SDS011;37695;52.960;6.188;2023-12-28T02:10:45;10.23;;;1.50;;
51614;SDS011;37695;52.960;6.188;2023-12-28T02:13:11;6.07;;;1.20;;
51614;SDS011;37695;52.960;6.188;2023-12-28T02:15:37;5.68;;;1.08;;
51614;SDS011;37695;52.960;6.188;2023-12-28T02:20:29;5.90;;;1.75;;
51614;SDS011;37695;52.960;6.188;2023-12-28T02:22:55;6.28;;;1.20;;
51614;SDS011;37695;52.960;6.188;2023-12-28T02:25:21;5.05;;;1.00;;
51614;SDS011;37695;52.960;6.188;2023-12-28T02:27:48;4.07;;;1.00;;
51614;SDS011;37695;52.960;6.188;2023-12-28T02:30:15;3.25;;;1.05;;
51614;SDS011;37695;52.960;6.188;2023-12-28T02:35:31;4.20;;;1.05;;
51614;SDS011;37695;52.960;6.188;2023-12-28T02:37:58;6.13;;;1.10;;
51614;SDS011;37695;52.960;6.188;2023-12-28T02:40:27;4.88;;;1.20;;
51614;SDS011;37695;52.960;6.188;2023-12-28T02:42:55;7.82;;;1.50;;
51614;SDS011;37695;52.960;6.188;2023-12-28T02:45:21;8.05;;;1.45;;
51614;SDS011;37695;52.960;6.188;2023-12-28T02:47:47;7.75;;;1.45;;
51614;SDS011;37695;52.960;6.188;2023-12-28T02:50:13;4.95;;;0.82;;
51614;SDS011;37695;52.960;6.188;2023-12-28T02:52:39;3.88;;;0.80;;
51614;SDS011;37695;52.960;6.188;2023-12-28T02:55:06;10.55;;;1.77;;
51614;SDS011;37695;52.960;6.188;2023-12-28T02:57:32;7.97;;;1.05;;
51614;SDS011;37695;52.960;6.188;2023-12-28T02:59:58;5.72;;;0.80;;
51614;SDS011;37695;52.960;6.188;2023-12-28T03:02:27;4.45;;;1.08;;
51614;SDS011;37695;52.960;6.188;2023-12-28T03:04:53;6.03;;;0.93;;
51614;SDS011;37695;52.960;6.188;2023-12-28T03:07:20;4.65;;;1.05;;
51614;SDS011;37695;52.960;6.188;2023-12-28T03:09:46;4.43;;;0.70;;
51614;SDS011;37695;52.960;6.188;2023-12-28T03:12:12;3.90;;;0.88;;
51614;SDS011;37695;52.960;6.188;2023-12-28T03:14:38;6.53;;;1.00;;
51614;SDS011;37695;52.960;6.188;2023-12-28T03:17:04;8.32;;;1.13;;
51614;SDS011;37695;52.960;6.188;2023-12-28T03:19:30;6.57;;;1.02;;
51614;SDS011;37695;52.960;6.188;2023-12-28T03:21:56;4.85;;;0.75;;
51614;SDS011;37695;52.960;6.188;2023-12-28T03:24:22;5.63;;;0.73;;
51614;SDS011;37695;52.960;6.188;2023-12-28T03:26:48;5.97;;;0.80;;
51614;SDS011;37695;52.960;6.188;2023-12-28T03:29:14;5.97;;;1.02;;
51614;SDS011;37695;52.960;6.188;2023-12-28T03:31:40;4.63;;;0.80;;
51614;SDS011;37695;52.960;6.188;2023-12-28T03:34:06;4.38;;;0.82;;
51614;SDS011;37695;52.960;6.188;2023-12-28T03:36:32;8.63;;;1.20;;
51614;SDS011;37695;52.960;6.188;2023-12-28T03:38:58;7.78;;;1.05;;
51614;SDS011;37695;52.960;6.188;2023-12-28T03:41:24;6.32;;;1.05;;
51614;SDS011;37695;52.960;6.188;2023-12-28T03:43:50;6.88;;;0.95;;
51614;SDS011;37695;52.960;6.188;2023-12-28T03:46:16;6.15;;;1.13;;
51614;SDS011;37695;52.960;6.188;2023-12-28T03:48:42;3.53;;;0.90;;
51614;SDS011;37695;52.960;6.188;2023-12-28T03:51:08;8.25;;;0.77;;
51614;SDS011;37695;52.960;6.188;2023-12-28T03:53:40;4.05;;;0.95;;
51614;SDS011;37695;52.960;6.188;2023-12-28T03:56:06;6.38;;;1.00;;
51614;SDS011;37695;52.960;6.188;2023-12-28T03:58:32;5.88;;;1.25;;
51614;SDS011;37695;52.960;6.188;2023-12-28T04:00:58;8.40;;;1.02;;
51614;SDS011;37695;52.960;6.188;2023-12-28T04:03:24;4.05;;;0.70;;
51614;SDS011;37695;52.960;6.188;2023-12-28T04:05:50;4.68;;;1.13;;
51614;SDS011;37695;52.960;6.188;2023-12-28T04:08:16;4.88;;;0.90;;
51614;SDS011;37695;52.960;6.188;2023-12-28T04:10:42;6.45;;;1.38;;
51614;SDS011;37695;52.960;6.188;2023-12-28T04:13:08;6.35;;;1.23;;
51614;SDS011;37695;52.960;6.188;2023-12-28T04:15:34;11.32;;;1.10;;
51614;SDS011;37695;52.960;6.188;2023-12-28T04:18:00;6.93;;;0.93;;
51614;SDS011;37695;52.960;6.188;2023-12-28T04:20:26;2.72;;;0.55;;
51614;SDS011;37695;52.960;6.188;2023-12-28T04:22:52;3.53;;;0.95;;
51614;SDS011;37695;52.960;6.188;2023-12-28T04:25:18;6.10;;;0.73;;
51614;SDS011;37695;52.960;6.188;2023-12-28T04:27:45;8.32;;;1.02;;
51614;SDS011;37695;52.960;6.188;2023-12-28T04:30:11;3.75;;;0.70;;
51614;SDS011;37695;52.960;6.188;2023-12-28T04:32:37;6.30;;;0.88;;
51614;SDS011;37695;52.960;6.188;2023-12-28T04:35:04;6.78;;;0.98;;
51614;SDS011;37695;52.960;6.188;2023-12-28T04:37:31;6.70;;;0.68;;
51614;SDS011;37695;52.960;6.188;2023-12-28T04:39:57;4.75;;;0.80;;
51614;SDS011;37695;52.960;6.188;2023-12-28T04:42:23;3.83;;;1.48;;
51614;SDS011;37695;52.960;6.188;2023-12-28T04:44:49;7.22;;;0.90;;
51614;SDS011;37695;52.960;6.188;2023-12-28T04:47:15;9.23;;;1.05;;
51614;SDS011;37695;52.960;6.188;2023-12-28T04:49:41;7.75;;;0.90;;
51614;SDS011;37695;52.960;6.188;2023-12-28T04:52:07;8.18;;;1.58;;
51614;SDS011;37695;52.960;6.188;2023-12-28T04:54:33;5.28;;;1.10;;
51614;SDS011;37695;52.960;6.188;2023-12-28T04:57:00;4.90;;;0.95;;
51614;SDS011;37695;52.960;6.188;2023-12-28T04:59:26;6.13;;;0.85;;
51614;SDS011;37695;52.960;6.188;2023-12-28T05:01:52;2.80;;;0.63;;
51614;SDS011;37695;52.960;6.188;2023-12-28T05:04:18;4.07;;;0.70;;
51614;SDS011;37695;52.960;6.188;2023-12-28T05:06:44;6.18;;;0.88;;
51614;SDS011;37695;52.960;6.188;2023-12-28T05:09:10;9.75;;;1.15;;
51614;SDS011;37695;52.960;6.188;2023-12-28T05:11:36;5.68;;;0.80;;
51614;SDS011;37695;52.960;6.188;2023-12-28T05:14:02;11.15;;;1.23;;
51614;SDS011;37695;52.960;6.188;2023-12-28T05:16:28;7.68;;;0.52;;
51614;SDS011;37695;52.960;6.188;2023-12-28T05:18:54;10.63;;;1.30;;
51614;SDS011;37695;52.960;6.188;2023-12-28T05:21:20;8.00;;;0.75;;
51614;SDS011;37695;52.960;6.188;2023-12-28T05:23:46;4.07;;;0.60;;
51614;SDS011;37695;52.960;6.188;2023-12-28T05:26:12;5.95;;;0.70;;
51614;SDS011;37695;52.960;6.188;2023-12-28T05:28:38;10.30;;;1.00;;
51614;SDS011;37695;52.960;6.188;2023-12-28T05:31:05;9.20;;;1.15;;
51614;SDS011;37695;52.960;6.188;2023-12-28T05:33:30;10.07;;;0.90;;
51614;SDS011;37695;52.960;6.188;2023-12-28T05:35:57;6.78;;;0.80;;
51614;SDS011;37695;52.960;6.188;2023-12-28T05:38:23;5.97;;;0.70;;
51614;SDS011;37695;52.960;6.188;2023-12-28T05:40:49;9.45;;;1.23;;
51614;SDS011;37695;52.960;6.188;2023-12-28T05:43:15;5.95;;;0.65;;
51614;SDS011;37695;52.960;6.188;2023-12-28T05:45:41;9.18;;;1.00;;
51614;SDS011;37695;52.960;6.188;2023-12-28T05:48:07;5.82;;;1.30;;
51614;SDS011;37695;52.960;6.188;2023-12-28T05:50:33;5.03;;;0.90;;
51614;SDS011;37695;52.960;6.188;2023-12-28T05:52:59;6.93;;;0.77;;
51614;SDS011;37695;52.960;6.188;2023-12-28T05:55:25;5.93;;;0.70;;
51614;SDS011;37695;52.960;6.188;2023-12-28T05:57:51;8.02;;;1.20;;
51614;SDS011;37695;52.960;6.188;2023-12-28T06:00:17;7.35;;;1.17;;
51614;SDS011;37695;52.960;6.188;2023-12-28T06:02:43;9.07;;;1.13;;
51614;SDS011;37695;52.960;6.188;2023-12-28T06:05:11;10.57;;;1.10;;
51614;SDS011;37695;52.960;6.188;2023-12-28T06:07:37;7.95;;;0.80;;
51614;SDS011;37695;52.960;6.188;2023-12-28T06:10:03;7.03;;;0.90;;
51614;SDS011;37695;52.960;6.188;2023-12-28T06:12:29;8.68;;;1.08;;
51614;SDS011;37695;52.960;6.188;2023-12-28T06:14:55;9.48;;;1.23;;
51614;SDS011;37695;52.960;6.188;2023-12-28T06:17:21;7.43;;;0.70;;
51614;SDS011;37695;52.960;6.188;2023-12-28T06:19:47;6.50;;;0.70;;
51614;SDS011;37695;52.960;6.188;2023-12-28T06:22:15;11.02;;;1.42;;
51614;SDS011;37695;52.960;6.188;2023-12-28T06:24:41;9.38;;;1.08;;
51614;SDS011;37695;52.960;6.188;2023-12-28T06:27:07;7.38;;;1.13;;
51614;SDS011;37695;52.960;6.188;2023-12-28T06:29:32;7.80;;;0.93;;
51614;SDS011;37695;52.960;6.188;2023-12-28T06:31:58;7.20;;;1.13;;
51614;SDS011;37695;52.960;6.188;2023-12-28T06:34:23;10.30;;;0.95;;
51614;SDS011;37695;52.960;6.188;2023-12-28T06:36:49;9.50;;;1.95;;
51614;SDS011;37695;52.960;6.188;2023-12-28T06:39:15;12.90;;;1.75;;
51614;SDS011;37695;52.960;6.188;2023-12-28T06:41:41;8.50;;;1.25;;
51614;SDS011;37695;52.960;6.188;2023-12-28T06:44:07;6.25;;;1.52;;
51614;SDS011;37695;52.960;6.188;2023-12-28T06:46:33;4.35;;;0.73;;
51614;SDS011;37695;52.960;6.188;2023-12-28T06:48:59;8.57;;;0.95;;
51614;SDS011;37695;52.960;6.188;2023-12-28T06:51:25;7.72;;;0.85;;
51614;SDS011;37695;52.960;6.188;2023-12-28T06:53:51;7.93;;;1.10;;
51614;SDS011;37695;52.960;6.188;2023-12-28T06:56:17;12.75;;;1.00;;
51614;SDS011;37695;52.960;6.188;2023-12-28T06:58:43;9.57;;;0.98;;
51614;SDS011;37695;52.960;6.188;2023-12-28T07:01:09;9.10;;;0.73;;
51614;SDS011;37695;52.960;6.188;2023-12-28T07:03:36;9.68;;;0.88;;
51614;SDS011;37695;52.960;6.188;2023-12-28T07:06:02;7.43;;;0.73;;
51614;SDS011;37695;52.960;6.188;2023-12-28T07:08:28;11.73;;;0.90;;
51614;SDS011;37695;52.960;6.188;2023-12-28T07:10:54;13.05;;;1.23;;
51614;SDS011;37695;52.960;6.188;2023-12-28T07:13:20;5.03;;;0.60;;
51614;SDS011;37695;52.960;6.188;2023-12-28T07:15:45;10.82;;;1.60;;
51614;SDS011;37695;52.960;6.188;2023-12-28T07:18:11;9.68;;;1.52;;
51614;SDS011;37695;52.960;6.188;2023-12-28T07:20:37;9.50;;;0.82;;
51614;SDS011;37695;52.960;6.188;2023-12-28T07:23:03;7.72;;;0.63;;
51614;SDS011;37695;52.960;6.188;2023-12-28T07:25:29;9.02;;;1.42;;
51614;SDS011;37695;52.960;6.188;2023-12-28T07:27:55;8.43;;;0.80;;
51614;SDS011;37695;52.960;6.188;2023-12-28T07:30:21;11.95;;;2.25;;
51614;SDS011;37695;52.960;6.188;2023-12-28T07:32:46;9.13;;;1.08;;
51614;SDS011;37695;52.960;6.188;2023-12-28T07:35:12;9.90;;;1.27;;
51614;SDS011;37695;52.960;6.188;2023-12-28T07:37:38;8.32;;;0.95;;
51614;SDS011;37695;52.960;6.188;2023-12-28T07:40:04;10.70;;;1.15;;
51614;SDS011;37695;52.960;6.188;2023-12-28T07:42:30;10.60;;;1.10;;
51614;SDS011;37695;52.960;6.188;2023-12-28T07:44:56;11.65;;;1.80;;
51614;SDS011;37695;52.960;6.188;2023-12-28T07:47:22;12.32;;;1.73;;
51614;SDS011;37695;52.960;6.188;2023-12-28T07:49:48;11.40;;;0.90;;
51614;SDS011;37695;52.960;6.188;2023-12-28T07:52:14;14.80;;;2.47;;
51614;SDS011;37695;52.960;6.188;2023-12-28T07:54:40;10.55;;;1.33;;
51614;SDS011;37695;52.960;6.188;2023-12-28T07:57:06;11.07;;;1.50;;
51614;SDS011;37695;52.960;6.188;2023-12-28T07:59:32;14.90;;;1.33;;
51614;SDS011;37695;52.960;6.188;2023-12-28T08:01:58;14.35;;;1.25;;
51614;SDS011;37695;52.960;6.188;2023-12-28T08:04:24;13.07;;;1.60;;
51614;SDS011;37695;52.960;6.188;2023-12-28T08:06:50;12.18;;;1.15;;
51614;SDS011;37695;52.960;6.188;2023-12-28T08:09:16;6.90;;;1.23;;
51614;SDS011;37695;52.960;6.188;2023-12-28T08:11:42;9.60;;;1.00;;
51614;SDS011;37695;52.960;6.188;2023-12-28T08:14:08;10.63;;;1.27;;
51614;SDS011;37695;52.960;6.188;2023-12-28T08:16:33;9.65;;;1.20;;
51614;SDS011;37695;52.960;6.188;2023-12-28T08:19:00;12.88;;;1.35;;
51614;SDS011;37695;52.960;6.188;2023-12-28T08:21:26;11.95;;;1.45;;
51614;SDS011;37695;52.960;6.188;2023-12-28T08:23:51;13.50;;;1.30;;
51614;SDS011;37695;52.960;6.188;2023-12-28T08:26:18;13.15;;;1.95;;
51614;SDS011;37695;52.960;6.188;2023-12-28T08:28:44;14.88;;;1.67;;
51614;SDS011;37695;52.960;6.188;2023-12-28T08:31:10;15.20;;;1.52;;
51614;SDS011;37695;52.960;6.188;2023-12-28T08:33:37;11.48;;;1.42;;
51614;SDS011;37695;52.960;6.188;2023-12-28T08:36:06;10.65;;;1.80;;
51614;SDS011;37695;52.960;6.188;2023-12-28T08:38:33;7.80;;;0.95;;
51614;SDS011;37695;52.960;6.188;2023-12-28T08:40:58;13.15;;;1.60;;
51614;SDS011;37695;52.960;6.188;2023-12-28T08:43:24;12.93;;;1.20;;
51614;SDS011;37695;52.960;6.188;2023-12-28T08:45:49;12.48;;;1.20;;
51614;SDS011;37695;52.960;6.188;2023-12-28T08:48:15;10.45;;;1.40;;
51614;SDS011;37695;52.960;6.188;2023-12-28T08:50:41;10.95;;;1.77;;
51614;SDS011;37695;52.960;6.188;2023-12-28T08:53:07;14.43;;;1.42;;
51614;SDS011;37695;52.960;6.188;2023-12-28T08:55:33;13.95;;;1.70;;
51614;SDS011;37695;52.960;6.188;2023-12-28T08:57:59;14.82;;;2.00;;
51614;SDS011;37695;52.960;6.188;2023-12-28T09:00:25;8.77;;;1.00;;
51614;SDS011;37695;52.960;6.188;2023-12-28T09:02:51;12.02;;;0.95;;
51614;SDS011;37695;52.960;6.188;2023-12-28T09:05:17;13.30;;;1.10;;
51614;SDS011;37695;52.960;6.188;2023-12-28T09:07:43;10.73;;;1.00;;
51614;SDS011;37695;52.960;6.188;2023-12-28T09:10:10;13.30;;;1.38;;
51614;SDS011;37695;52.960;6.188;2023-12-28T09:12:36;12.65;;;1.25;;
51614;SDS011;37695;52.960;6.188;2023-12-28T09:15:03;11.77;;;1.20;;
51614;SDS011;37695;52.960;6.188;2023-12-28T09:17:30;8.52;;;1.23;;
51614;SDS011;37695;52.960;6.188;2023-12-28T09:19:56;13.02;;;1.40;;
51614;SDS011;37695;52.960;6.188;2023-12-28T09:22:23;10.02;;;1.00;;
51614;SDS011;37695;52.960;6.188;2023-12-28T09:24:49;9.63;;;1.30;;
51614;SDS011;37695;52.960;6.188;2023-12-28T09:27:15;12.50;;;1.23;;
51614;SDS011;37695;52.960;6.188;2023-12-28T09:29:40;10.80;;;1.15;;
51614;SDS011;37695;52.960;6.188;2023-12-28T09:32:06;11.23;;;1.23;;
51614;SDS011;37695;52.960;6.188;2023-12-28T09:34:33;15.73;;;1.27;;
51614;SDS011;37695;52.960;6.188;2023-12-28T09:36:59;9.07;;;1.15;;
51614;SDS011;37695;52.960;6.188;2023-12-28T09:39:25;21.00;;;1.85;;
51614;SDS011;37695;52.960;6.188;2023-12-28T09:41:59;15.52;;;1.30;;
51614;SDS011;37695;52.960;6.188;2023-12-28T09:44:34;16.08;;;1.45;;
51614;SDS011;37695;52.960;6.188;2023-12-28T09:47:03;11.07;;;1.52;;
51614;SDS011;37695;52.960;6.188;2023-12-28T09:49:31;10.52;;;1.02;;
51614;SDS011;37695;52.960;6.188;2023-12-28T09:51:58;11.68;;;1.08;;
51614;SDS011;37695;52.960;6.188;2023-12-28T09:54:25;11.65;;;1.30;;
51614;SDS011;37695;52.960;6.188;2023-12-28T09:56:51;7.50;;;1.38;;
51614;SDS011;37695;52.960;6.188;2023-12-28T09:59:17;11.02;;;1.73;;
51614;SDS011;37695;52.960;6.188;2023-12-28T10:01:45;11.02;;;1.27;;
51614;SDS011;37695;52.960;6.188;2023-12-28T10:04:12;13.05;;;1.63;;
51614;SDS011;37695;52.960;6.188;2023-12-28T10:06:39;12.20;;;1.15;;
51614;SDS011;37695;52.960;6.188;2023-12-28T10:09:06;11.82;;;1.77;;
51614;SDS011;37695;52.960;6.188;2023-12-28T10:11:32;13.50;;;1.20;;
51614;SDS011;37695;52.960;6.188;2023-12-28T10:13:58;10.90;;;1.60;;
51614;SDS011;37695;52.960;6.188;2023-12-28T10:16:25;8.93;;;1.10;;
51614;SDS011;37695;52.960;6.188;2023-12-28T10:18:51;12.68;;;1.65;;
51614;SDS011;37695;52.960;6.188;2023-12-28T10:21:17;12.73;;;1.40;;
51614;SDS011;37695;52.960;6.188;2023-12-28T10:23:43;8.38;;;1.65;;
51614;SDS011;37695;52.960;6.188;2023-12-28T10:26:09;10.13;;;1.33;;
51614;SDS011;37695;52.960;6.188;2023-12-28T10:28:35;19.05;;;1.00;;
51614;SDS011;37695;52.960;6.188;2023-12-28T10:31:04;11.95;;;1.50;;
51614;SDS011;37695;52.960;6.188;2023-12-28T10:33:37;10.80;;;1.00;;
51614;SDS011;37695;52.960;6.188;2023-12-28T10:36:05;8.57;;;1.17;;
51614;SDS011;37695;52.960;6.188;2023-12-28T10:38:34;12.25;;;1.20;;
51614;SDS011;37695;52.960;6.188;2023-12-28T10:41:07;11.73;;;0.95;;
51614;SDS011;37695;52.960;6.188;2023-12-28T10:43:46;9.90;;;1.15;;
51614;SDS011;37695;52.960;6.188;2023-12-28T10:46:22;15.48;;;1.63;;
51614;SDS011;37695;52.960;6.188;2023-12-28T10:48:53;9.82;;;1.10;;
51614;SDS011;37695;52.960;6.188;2023-12-28T10:56:28;8.48;;;1.15;;
51614;SDS011;37695;52.960;6.188;2023-12-28T10:59:05;9.00;;;1.60;;
51614;SDS011;37695;52.960;6.188;2023-12-28T11:01:42;12.90;;;1.92;;
51614;SDS011;37695;52.960;6.188;2023-12-28T11:06:37;17.17;;;1.52;;
51614;SDS011;37695;52.960;6.188;2023-12-28T11:09:04;11.40;;;1.90;;
51614;SDS011;37695;52.960;6.188;2023-12-28T11:11:33;13.77;;;1.63;;
51614;SDS011;37695;52.960;6.188;2023-12-28T11:13:59;10.35;;;2.33;;
51614;SDS011;37695;52.960;6.188;2023-12-28T11:16:27;13.73;;;2.13;;
51614;SDS011;37695;52.960;6.188;2023-12-28T11:18:54;12.02;;;2.30;;
51614;SDS011;37695;52.960;6.188;2023-12-28T11:21:20;11.02;;;1.15;;
51614;SDS011;37695;52.960;6.188;2023-12-28T11:23:48;9.95;;;1.38;;
51614;SDS011;37695;52.960;6.188;2023-12-28T11:26:17;11.13;;;1.17;;
51614;SDS011;37695;52.960;6.188;2023-12-28T11:28:44;11.55;;;2.08;;
51614;SDS011;37695;52.960;6.188;2023-12-28T11:31:10;10.18;;;1.88;;
51614;SDS011;37695;52.960;6.188;2023-12-28T11:33:44;11.32;;;1.40;;
51614;SDS011;37695;52.960;6.188;2023-12-28T11:36:43;8.77;;;1.40;;
51614;SDS011;37695;52.960;6.188;2023-12-28T11:41:44;11.70;;;1.20;;
51614;SDS011;37695;52.960;6.188;2023-12-28T11:44:10;10.90;;;1.27;;
51614;SDS011;37695;52.960;6.188;2023-12-28T11:46:36;10.50;;;1.85;;
51614;SDS011;37695;52.960;6.188;2023-12-28T11:49:03;10.80;;;1.63;;
51614;SDS011;37695;52.960;6.188;2023-12-28T11:51:29;11.98;;;1.83;;
51614;SDS011;37695;52.960;6.188;2023-12-28T11:53:55;15.82;;;2.50;;
51614;SDS011;37695;52.960;6.188;2023-12-28T11:56:22;13.35;;;2.33;;
51614;SDS011;37695;52.960;6.188;2023-12-28T11:58:48;15.57;;;1.58;;
51614;SDS011;37695;52.960;6.188;2023-12-28T12:01:14;12.00;;;1.75;;
51614;SDS011;37695;52.960;6.188;2023-12-28T12:03:40;10.05;;;1.38;;
51614;SDS011;37695;52.960;6.188;2023-12-28T12:06:06;8.13;;;1.65;;
51614;SDS011;37695;52.960;6.188;2023-12-28T12:08:32;11.93;;;1.35;;
51614;SDS011;37695;52.960;6.188;2023-12-28T12:11:01;15.40;;;1.67;;
51614;SDS011;37695;52.960;6.188;2023-12-28T12:13:29;14.38;;;1.48;;
51614;SDS011;37695;52.960;6.188;2023-12-28T12:15:55;10.73;;;1.85;;
51614;SDS011;37695;52.960;6.188;2023-12-28T12:18:22;10.13;;;1.15;;
51614;SDS011;37695;52.960;6.188;2023-12-28T12:20:48;13.05;;;1.30;;
51614;SDS011;37695;52.960;6.188;2023-12-28T12:23:14;12.15;;;1.77;;
51614;SDS011;37695;52.960;6.188;2023-12-28T12:25:41;10.70;;;1.58;;
51614;SDS011;37695;52.960;6.188;2023-12-28T12:28:06;11.98;;;1.65;;
51614;SDS011;37695;52.960;6.188;2023-12-28T12:30:33;13.10;;;1.25;;
51614;SDS011;37695;52.960;6.188;2023-12-28T12:32:59;15.50;;;2.55;;
51614;SDS011;37695;52.960;6.188;2023-12-28T12:35:26;10.90;;;1.38;;
51614;SDS011;37695;52.960;6.188;2023-12-28T12:37:52;14.88;;;1.77;;
51614;SDS011;37695;52.960;6.188;2023-12-28T12:40:19;11.52;;;1.48;;
51614;SDS011;37695;52.960;6.188;2023-12-28T12:42:52;11.15;;;1.70;;
51614;SDS011;37695;52.960;6.188;2023-12-28T12:45:19;13.90;;;1.65;;
51614;SDS011;37695;52.960;6.188;2023-12-28T12:47:46;8.43;;;1.00;;
51614;SDS011;37695;52.960;6.188;2023-12-28T12:50:11;16.63;;;1.92;;
51614;SDS011;37695;52.960;6.188;2023-12-28T12:52:38;12.98;;;1.50;;
51614;SDS011;37695;52.960;6.188;2023-12-28T12:55:04;9.00;;;1.33;;
51614;SDS011;37695;52.960;6.188;2023-12-28T12:57:30;11.13;;;1.25;;
51614;SDS011;37695;52.960;6.188;2023-12-28T12:59:56;13.18;;;1.38;;
51614;SDS011;37695;52.960;6.188;2023-12-28T13:02:23;6.70;;;1.08;;
51614;SDS011;37695;52.960;6.188;2023-12-28T13:04:52;11.05;;;1.55;;
51614;SDS011;37695;52.960;6.188;2023-12-28T13:07:18;13.35;;;1.40;;
51614;SDS011;37695;52.960;6.188;2023-12-28T13:09:44;16.15;;;1.88;;
51614;SDS011;37695;52.960;6.188;2023-12-28T13:12:10;14.15;;;1.50;;
51614;SDS011;37695;52.960;6.188;2023-12-28T13:14:36;12.98;;;1.83;;
51614;SDS011;37695;52.960;6.188;2023-12-28T13:17:02;13.80;;;1.88;;
51614;SDS011;37695;52.960;6.188;2023-12-28T13:19:28;11.95;;;1.33;;
51614;SDS011;37695;52.960;6.188;2023-12-28T13:21:54;9.93;;;1.42;;
51614;SDS011;37695;52.960;6.188;2023-12-28T13:24:20;13.10;;;1.90;;
51614;SDS011;37695;52.960;6.188;2023-12-28T13:26:46;9.43;;;1.00;;
51614;SDS011;37695;52.960;6.188;2023-12-28T13:29:12;9.90;;;1.20;;
51614;SDS011;37695;52.960;6.188;2023-12-28T13:31:38;9.80;;;1.55;;
51614;SDS011;37695;52.960;6.188;2023-12-28T13:34:04;11.63;;;1.30;;
51614;SDS011;37695;52.960;6.188;2023-12-28T13:36:30;10.43;;;1.52;;
51614;SDS011;37695;52.960;6.188;2023-12-28T13:38:56;10.25;;;1.45;;
51614;SDS011;37695;52.960;6.188;2023-12-28T13:41:22;12.80;;;2.05;;
51614;SDS011;37695;52.960;6.188;2023-12-28T13:43:48;15.80;;;2.55;;
51614;SDS011;37695;52.960;6.188;2023-12-28T13:46:14;10.75;;;1.90;;
51614;SDS011;37695;52.960;6.188;2023-12-28T13:48:40;10.32;;;1.23;;
51614;SDS011;37695;52.960;6.188;2023-12-28T13:51:07;10.75;;;2.13;;
51614;SDS011;37695;52.960;6.188;2023-12-28T13:53:34;9.90;;;1.15;;
51614;SDS011;37695;52.960;6.188;2023-12-28T13:56:05;9.73;;;1.13;;
51614;SDS011;37695;52.960;6.188;2023-12-28T13:58:33;12.32;;;1.77;;
51614;SDS011;37695;52.960;6.188;2023-12-28T14:00:59;14.00;;;1.83;;
51614;SDS011;37695;52.960;6.188;2023-12-28T14:03:25;9.48;;;1.30;;
51614;SDS011;37695;52.960;6.188;2023-12-28T14:05:51;10.60;;;1.00;;
51614;SDS011;37695;52.960;6.188;2023-12-28T14:08:17;12.75;;;2.38;;
51614;SDS011;37695;52.960;6.188;2023-12-28T14:10:43;16.92;;;1.45;;
51614;SDS011;37695;52.960;6.188;2023-12-28T14:13:09;12.35;;;1.08;;
51614;SDS011;37695;52.960;6.188;2023-12-28T14:15:35;12.18;;;1.30;;
51614;SDS011;37695;52.960;6.188;2023-12-28T14:18:03;13.13;;;1.67;;
51614;SDS011;37695;52.960;6.188;2023-12-28T14:20:30;14.63;;;1.58;;
51614;SDS011;37695;52.960;6.188;2023-12-28T14:22:56;9.10;;;1.52;;
51614;SDS011;37695;52.960;6.188;2023-12-28T14:25:23;15.70;;;1.73;;
51614;SDS011;37695;52.960;6.188;2023-12-28T14:27:49;14.48;;;1.27;;
51614;SDS011;37695;52.960;6.188;2023-12-28T14:30:16;17.77;;;1.70;;
51614;SDS011;37695;52.960;6.188;2023-12-28T14:32:42;11.82;;;2.35;;
51614;SDS011;37695;52.960;6.188;2023-12-28T14:35:09;11.23;;;1.48;;
51614;SDS011;37695;52.960;6.188;2023-12-28T14:37:35;10.10;;;1.30;;
51614;SDS011;37695;52.960;6.188;2023-12-28T14:40:01;10.27;;;1.38;;
51614;SDS011;37695;52.960;6.188;2023-12-28T14:42:31;16.02;;;1.70;;
51614;SDS011;37695;52.960;6.188;2023-12-28T14:44:58;7.28;;;1.65;;
51614;SDS011;37695;52.960;6.188;2023-12-28T14:47:25;9.95;;;1.30;;
51614;SDS011;37695;52.960;6.188;2023-12-28T14:49:51;10.45;;;2.15;;
51614;SDS011;37695;52.960;6.188;2023-12-28T14:52:17;12.07;;;1.83;;